Time;durP1;ratioP1;P1;durP2;ratioP2;P2;SDS_P1;SDS_P2;PMS_P1;PMS_P2;Temp;Humidity;BMP_temperature;BMP_pressure;BME280_temperature;BME280_humidity;BME280_pressure;Samples;Min_cycle;Max_cycle;Signal;HPM_P1;HPM_P2
2023/07/22 00:00:15;;;;;;;7.00;4.10;;;;;;;24.74;47.11;94691.66;5090491;28;20479;-76
2023/07/22 00:02:40;;;;;;;8.10;3.90;;;;;;;24.78;46.96;94692.81;5090666;28;20473;-77
2023/07/22 00:05:07;;;;;;;6.63;4.32;;;;;;;24.70;47.50;94703.72;5089103;28;20059;-77
2023/07/22 00:07:32;;;;;;;6.05;3.65;;;;;;;24.64;47.64;94717.88;5090020;28;20513;-77
2023/07/22 00:09:59;;;;;;;7.20;4.30;;;;;;;24.55;48.04;94711.22;5090408;28;20047;-77
2023/07/22 00:12:25;;;;;;;5.28;3.58;;;;;;;24.55;47.88;94730.59;5072329;28;20417;-75
2023/07/22 00:14:50;;;;;;;6.85;4.15;;;;;;;24.62;48.25;94718.06;5072945;28;20028;-73
2023/07/22 00:17:16;;;;;;;10.20;3.97;;;;;;;24.52;47.75;94734.50;5089713;28;20501;-74
2023/07/22 00:19:41;;;;;;;6.07;4.10;;;;;;;24.69;49.02;94734.78;5090928;28;20020;-74
2023/07/22 00:22:07;;;;;;;8.98;3.95;;;;;;;24.49;48.63;94737.59;5087852;28;20089;-74
2023/07/22 00:24:32;;;;;;;7.38;4.40;;;;;;;24.45;49.75;94743.53;5090415;28;20528;-74
2023/07/22 00:26:57;;;;;;;7.65;3.83;;;;;;;24.55;49.47;94743.06;5089719;28;20032;-75
2023/07/22 00:29:23;;;;;;;6.88;4.15;;;;;;;24.02;51.22;94739.66;5091255;28;20039;-74
2023/07/22 00:31:49;;;;;;;5.93;4.20;;;;;;;23.93;50.23;94748.06;5090535;28;20027;-74
2023/07/22 00:34:14;;;;;;;7.80;4.43;;;;;;;23.98;51.37;94757.03;5073261;28;20201;-75
2023/07/22 00:36:40;;;;;;;7.57;4.15;;;;;;;23.77;51.19;94747.53;5090884;28;20579;-76
2023/07/22 00:39:05;;;;;;;8.80;4.70;;;;;;;23.69;51.26;94754.88;5073146;28;20490;-74
2023/07/22 00:41:34;;;;;;;7.18;3.92;;;;;;;23.61;52.16;94740.03;5090232;28;20028;-76
2023/07/22 00:43:59;;;;;;;6.18;4.30;;;;;;;23.56;52.21;94748.59;5079347;28;20067;-76
2023/07/22 00:46:25;;;;;;;6.43;4.32;;;;;;;23.28;53.14;94756.00;5086290;28;20032;-75
2023/07/22 00:48:50;;;;;;;7.35;4.28;;;;;;;23.19;52.92;94761.53;5090559;28;20028;-75
2023/07/22 00:51:16;;;;;;;7.60;4.25;;;;;;;23.05;53.40;94744.03;5089928;28;20055;-76
2023/07/22 00:53:41;;;;;;;7.05;4.35;;;;;;;22.96;53.05;94743.44;5089245;28;20031;-76
2023/07/22 00:56:07;;;;;;;9.07;4.22;;;;;;;22.96;54.36;94745.25;5089996;28;20028;-75
2023/07/22 00:58:33;;;;;;;6.55;4.18;;;;;;;22.93;53.89;94756.25;5088822;28;20027;-75
2023/07/22 01:00:58;;;;;;;6.32;4.30;;;;;;;23.05;54.40;94748.50;5089811;28;20051;-76
2023/07/22 01:03:25;;;;;;;7.28;4.30;;;;;;;22.83;54.72;94750.53;5089316;28;20028;-75
2023/07/22 01:05:51;;;;;;;8.45;4.10;;;;;;;22.90;53.96;94772.50;5089395;28;20034;-76
2023/07/22 01:08:17;;;;;;;6.82;4.40;;;;;;;22.30;55.21;94762.69;5071871;28;20052;-75
2023/07/22 01:10:42;;;;;;;8.75;4.80;;;;;;;22.49;55.53;94757.66;5071613;28;20043;-76
2023/07/22 01:13:08;;;;;;;10.90;4.47;;;;;;;22.54;55.24;94755.22;5088077;28;20039;-75
2023/07/22 01:15:33;;;;;;;6.95;4.32;;;;;;;22.40;55.97;94735.03;5088576;28;20021;-75
2023/07/22 01:18:01;;;;;;;5.63;4.20;;;;;;;22.40;55.49;94749.09;5088520;28;20089;-75
2023/07/22 01:20:28;;;;;;;6.30;4.43;;;;;;;22.36;56.10;94723.22;5072179;28;20074;-75
2023/07/22 01:22:54;;;;;;;6.63;4.03;;;;;;;22.49;55.63;94747.06;5089027;28;20031;-75
2023/07/22 01:25:22;;;;;;;6.50;4.30;;;;;;;22.51;56.05;94743.19;5087970;28;20032;-76
2023/07/22 01:27:51;;;;;;;6.25;4.10;;;;;;;22.62;55.51;94733.00;5088242;28;20038;-74
2023/07/22 01:30:17;;;;;;;6.25;4.53;;;;;;;22.57;55.05;94730.97;5088540;28;20032;-77
2023/07/22 01:32:42;;;;;;;8.15;4.43;;;;;;;22.60;55.73;94727.94;5085107;28;20023;-75
2023/07/22 01:35:08;;;;;;;9.45;4.55;;;;;;;22.60;55.92;94745.66;5070134;28;20036;-77
2023/07/22 01:37:34;;;;;;;6.45;4.00;;;;;;;22.52;56.42;94751.94;5088719;28;20032;-77
2023/07/22 01:39:59;;;;;;;8.52;4.60;;;;;;;22.41;56.78;94752.53;5088684;28;20114;-77
2023/07/22 01:42:25;;;;;;;7.15;4.20;;;;;;;22.42;55.92;94741.75;5089099;28;20031;-77
2023/07/22 01:44:50;;;;;;;5.38;4.20;;;;;;;22.42;56.61;94740.94;5089694;28;20043;-77
2023/07/22 01:47:16;;;;;;;6.28;4.35;;;;;;;22.44;56.80;94728.31;5089910;28;20096;-76
2023/07/22 01:49:41;;;;;;;7.68;4.45;;;;;;;22.50;56.41;94727.50;5088407;28;20455;-76
2023/07/22 01:52:07;;;;;;;7.47;4.10;;;;;;;22.50;56.87;94724.84;5086919;28;20024;-76
2023/07/22 01:54:32;;;;;;;5.22;4.00;;;;;;;22.45;57.20;94725.47;5089542;28;20032;-76
2023/07/22 01:56:58;;;;;;;7.80;4.63;;;;;;;22.56;56.98;94718.75;5087389;28;20028;-75
2023/07/22 01:59:23;;;;;;;5.97;4.63;;;;;;;22.05;58.69;94709.50;5088527;28;20043;-75
2023/07/22 02:01:49;;;;;;;6.53;4.60;;;;;;;22.23;57.43;94708.97;5087752;28;20503;-76
2023/07/22 02:04:14;;;;;;;7.22;4.40;;;;;;;22.19;58.30;94722.78;5088423;28;20485;-76
2023/07/22 02:06:39;;;;;;;7.15;4.45;;;;;;;22.08;58.71;94721.50;5089121;28;20035;-76
2023/07/22 02:09:08;;;;;;;7.88;4.30;;;;;;;22.01;58.83;94726.81;5087951;28;20060;-76
2023/07/22 02:11:36;;;;;;;6.05;4.30;;;;;;;21.98;58.86;94718.44;5087831;28;20016;-76
2023/07/22 02:14:03;;;;;;;7.22;4.75;;;;;;;21.89;58.88;94712.50;5088654;28;20077;-76
2023/07/22 02:16:28;;;;;;;8.13;4.15;;;;;;;21.76;59.42;94691.34;5088640;28;20069;-76
2023/07/22 02:18:54;;;;;;;6.22;4.50;;;;;;;21.86;58.87;94703.16;5089751;28;20020;-76
2023/07/22 02:21:19;;;;;;;6.32;4.63;;;;;;;21.93;59.07;94716.41;5091647;28;20028;-76
2023/07/22 02:23:45;;;;;;;10.50;4.97;;;;;;;21.78;59.39;94724.47;5091723;28;20460;-76
2023/07/22 02:26:10;;;;;;;6.82;4.50;;;;;;;21.76;59.65;94721.22;5092696;28;20278;-76
2023/07/22 02:28:35;;;;;;;6.20;4.35;;;;;;;21.67;60.00;94727.69;5091001;28;20089;-76
2023/07/22 02:31:04;;;;;;;7.35;4.78;;;;;;;21.72;60.50;94729.75;5091197;28;20047;-76
2023/07/22 02:33:30;;;;;;;6.13;4.88;;;;;;;21.67;60.24;94730.31;5075991;28;20122;-76
2023/07/22 02:35:56;;;;;;;6.57;4.60;;;;;;;21.58;59.81;94705.91;5093459;28;20503;-76
2023/07/22 02:38:21;;;;;;;6.00;4.38;;;;;;;21.76;59.80;94723.88;5093084;28;20028;-76
2023/07/22 02:40:47;;;;;;;6.80;4.68;;;;;;;21.76;60.08;94725.72;5091489;28;20073;-76
2023/07/22 02:43:12;;;;;;;6.97;4.93;;;;;;;21.73;60.19;94734.84;5092330;28;20162;-76
2023/07/22 02:45:38;;;;;;;7.35;4.57;;;;;;;21.71;59.37;94721.00;5091348;28;20032;-76
2023/07/22 02:48:03;;;;;;;7.57;4.57;;;;;;;21.70;60.37;94729.94;5075152;28;20081;-76
2023/07/22 02:50:30;;;;;;;7.07;4.53;;;;;;;21.57;61.09;94724.63;5092069;28;20513;-76
2023/07/22 02:52:57;;;;;;;5.03;4.18;;;;;;;21.71;60.43;94721.00;5074846;28;20567;-76
2023/07/22 02:55:23;;;;;;;8.25;4.95;;;;;;;21.71;60.57;94736.88;5091822;28;20071;-76
2023/07/22 02:57:50;;;;;;;6.90;4.60;;;;;;;21.60;61.60;94726.84;5092048;28;20035;-76
2023/07/22 03:00:23;;;;;;;8.60;4.50;;;;;;;21.58;61.00;94734.97;5091421;28;20039;-76
2023/07/22 03:03:00;;;;;;;5.90;4.60;;;;;;;21.66;60.96;94744.56;5039934;28;20123;-76
2023/07/22 03:05:25;;;;;;;6.72;4.65;;;;;;;21.60;61.57;94735.59;5062147;28;20418;-76
2023/07/22 03:07:52;;;;;;;6.20;4.78;;;;;;;21.66;61.63;94738.47;5074222;28;20044;-75
2023/07/22 03:10:17;;;;;;;6.53;4.65;;;;;;;21.62;61.33;94723.00;5092925;28;20440;-76
2023/07/22 03:12:43;;;;;;;6.15;4.75;;;;;;;21.55;61.91;94729.28;5090992;28;20102;-75
2023/07/22 03:15:08;;;;;;;7.32;4.20;;;;;;;21.56;61.84;94741.47;5074105;28;20048;-75
2023/07/22 03:17:36;;;;;;;6.40;4.38;;;;;;;21.47;61.48;94724.16;5072552;28;20029;-75
2023/07/22 03:20:05;;;;;;;7.22;5.05;;;;;;;21.44;62.28;94733.28;5071479;28;20063;-76
2023/07/22 03:22:31;;;;;;;8.07;4.57;;;;;;;21.48;61.99;94744.28;5071388;28;20444;-76
2023/07/22 03:24:56;;;;;;;6.68;4.25;;;;;;;21.58;61.57;94731.53;5090085;28;20024;-76
2023/07/22 03:27:22;;;;;;;7.47;4.57;;;;;;;21.53;61.50;94739.22;5074572;28;20409;-76
2023/07/22 03:29:47;;;;;;;9.30;4.82;;;;;;;21.55;61.93;94731.91;5092334;28;20102;-76
2023/07/22 03:32:12;;;;;;;6.40;4.78;;;;;;;21.47;62.57;94740.00;5090617;28;20036;-76
2023/07/22 03:34:38;;;;;;;7.25;5.03;;;;;;;21.44;62.43;94733.28;5057863;28;20031;-76
2023/07/22 03:37:03;;;;;;;5.93;4.50;;;;;;;21.50;62.23;94739.63;5091694;28;20378;-76
2023/07/22 03:39:28;;;;;;;6.65;4.05;;;;;;;21.62;62.36;94735.41;5092557;28;20032;-76
2023/07/22 03:41:57;;;;;;;5.50;4.57;;;;;;;21.59;61.65;94743.72;5090924;28;20497;-76
2023/07/22 03:44:22;;;;;;;6.88;4.63;;;;;;;21.54;61.93;94744.31;5092116;28;20094;-76
2023/07/22 03:46:47;;;;;;;6.20;4.72;;;;;;;21.53;61.73;94728.66;5091739;28;20028;-75
2023/07/22 03:49:13;;;;;;;6.85;5.07;;;;;;;21.63;62.09;94755.53;5090985;28;20085;-76
2023/07/22 03:51:38;;;;;;;5.00;4.45;;;;;;;21.83;61.76;94761.72;5091077;28;20024;-76
2023/07/22 03:54:04;;;;;;;7.60;4.57;;;;;;;21.89;62.09;94781.25;5092127;28;20455;-75
2023/07/22 03:56:29;;;;;;;6.07;4.65;;;;;;;22.00;61.91;94782.53;5091932;28;20043;-76
2023/07/22 03:58:54;;;;;;;10.80;4.68;;;;;;;21.91;62.16;94781.88;5073932;28;20036;-76
2023/07/22 04:01:20;;;;;;;6.60;4.60;;;;;;;21.94;62.52;94781.47;5091587;28;20039;-76
2023/07/22 04:03:45;;;;;;;6.35;4.30;;;;;;;21.98;62.04;94787.19;5091274;28;20024;-76
2023/07/22 04:06:11;;;;;;;6.28;4.65;;;;;;;21.93;62.52;94787.78;5073627;28;20031;-76
2023/07/22 04:08:36;;;;;;;6.45;4.72;;;;;;;21.98;62.42;94792.47;5091916;28;20052;-76
2023/07/22 04:11:02;;;;;;;7.78;4.68;;;;;;;22.34;60.67;94794.84;5091295;28;20418;-76
2023/07/22 04:13:27;;;;;;;6.82;4.78;;;;;;;22.46;59.73;94787.97;5073347;28;20046;-76
2023/07/22 04:15:53;;;;;;;7.78;4.80;;;;;;;22.92;59.03;94796.97;5067233;28;20044;-76
2023/07/22 04:18:19;;;;;;;9.82;4.80;;;;;;;23.59;58.10;94795.88;5073511;28;20051;-76
2023/07/22 04:20:45;;;;;;;7.20;4.55;;;;;;;24.25;56.11;94796.72;5073481;28;20028;-76
2023/07/22 04:23:10;;;;;;;7.70;4.80;;;;;;;24.86;54.59;94785.53;5042698;28;20036;-75
2023/07/22 04:25:45;;;;;;;7.40;4.80;;;;;;;25.30;53.76;94780.28;5074654;28;20062;-76
2023/07/22 04:28:10;;;;;;;6.97;4.97;;;;;;;25.80;51.78;94772.19;5090318;28;20028;-76
2023/07/22 04:30:36;;;;;;;6.70;4.32;;;;;;;26.37;51.06;94786.03;5091067;28;20031;-77
2023/07/22 04:33:02;;;;;;;5.50;4.50;;;;;;;26.95;49.97;94789.94;5068223;28;20024;-77
2023/07/22 04:35:31;;;;;;;5.68;4.20;;;;;;;27.13;48.35;94791.66;5070045;28;20036;-77
2023/07/22 04:37:56;;;;;;;6.35;4.30;;;;;;;27.68;47.09;94782.53;5054755;28;20054;-74
2023/07/22 04:40:21;;;;;;;7.70;4.50;;;;;;;28.31;46.37;94781.72;5089330;28;20035;-77
2023/07/22 04:42:47;;;;;;;6.30;4.28;;;;;;;28.58;45.36;94787.31;5090932;28;20500;-76
2023/07/22 04:45:13;;;;;;;8.57;4.53;;;;;;;29.08;44.25;94796.47;5091100;28;20028;-77
2023/07/22 04:47:39;;;;;;;7.15;4.75;;;;;;;29.20;42.91;94799.88;5088462;28;20036;-76
2023/07/22 04:50:09;;;;;;;9.68;4.50;;;;;;;29.14;42.36;94803.50;5072779;28;20032;-76
2023/07/22 04:52:34;;;;;;;8.48;4.75;;;;;;;29.06;42.67;94801.25;5089790;28;20054;-77
2023/07/22 04:55:00;;;;;;;7.68;4.82;;;;;;;29.25;43.22;94791.91;5089946;28;20040;-76
2023/07/22 04:57:25;;;;;;;11.40;4.63;;;;;;;29.25;42.61;94797.25;5090692;28;20032;-75
2023/07/22 04:59:51;;;;;;;6.90;4.40;;;;;;;29.02;43.61;94795.53;5089263;28;20445;-76
2023/07/22 05:02:16;;;;;;;6.88;4.45;;;;;;;28.99;44.08;94768.50;5090031;28;20031;-76
2023/07/22 05:04:41;;;;;;;7.15;4.50;;;;;;;29.22;44.07;94795.09;5091139;28;20036;-76
2023/07/22 05:07:07;;;;;;;6.75;4.22;;;;;;;29.08;43.84;94788.44;5090704;28;20024;-73
2023/07/22 05:09:33;;;;;;;8.07;4.47;;;;;;;29.14;43.19;94785.63;5088577;28;20048;-74
2023/07/22 05:11:59;;;;;;;8.05;4.80;;;;;;;29.14;43.72;94792.81;5072989;28;20044;-74
2023/07/22 05:14:25;;;;;;;6.72;4.60;;;;;;;28.79;43.37;94799.16;5090936;28;20031;-74
2023/07/22 05:16:50;;;;;;;9.30;4.75;;;;;;;28.68;43.98;94802.72;5088870;28;20024;-74
2023/07/22 05:19:15;;;;;;;7.40;4.32;;;;;;;28.51;44.58;94802.69;5089221;28;20044;-74
2023/07/22 05:21:41;;;;;;;6.38;4.25;;;;;;;28.25;44.72;94820.03;5090815;28;20024;-74
2023/07/22 05:24:06;;;;;;;7.40;4.90;;;;;;;27.85;46.17;94820.81;5088887;28;20031;-73
2023/07/22 05:26:32;;;;;;;6.90;4.65;;;;;;;27.93;45.90;94817.81;5072811;28;20024;-73
2023/07/22 05:28:57;;;;;;;7.70;5.00;;;;;;;27.75;46.61;94810.72;5072587;28;20024;-74
2023/07/22 05:31:23;;;;;;;6.65;4.93;;;;;;;27.81;46.67;94809.81;5090287;28;20043;-73
2023/07/22 05:33:48;;;;;;;7.70;5.18;;;;;;;27.99;46.22;94806.19;5091146;28;20405;-74
2023/07/22 05:36:13;;;;;;;7.38;4.65;;;;;;;27.93;45.93;94812.47;5086614;28;20762;-73
2023/07/22 05:38:39;;;;;;;7.25;4.97;;;;;;;28.24;45.88;94808.53;5092201;28;20028;-72
2023/07/22 05:41:04;;;;;;;7.50;4.82;;;;;;;27.75;46.85;94809.91;5088707;28;20055;-75
2023/07/22 05:43:30;;;;;;;8.50;4.32;;;;;;;27.97;46.49;94800.28;5101387;28;20080;-80
2023/07/22 05:45:55;;;;;;;7.75;5.05;;;;;;;27.88;47.33;94783.00;5099070;28;20028;-82
2023/07/22 05:48:21;;;;;;;8.48;5.13;;;;;;;28.34;46.14;94797.25;5085465;28;20032;-75
2023/07/22 05:50:47;;;;;;;6.35;4.85;;;;;;;28.19;45.52;94816.44;5057514;28;20035;-77
2023/07/22 05:53:13;;;;;;;7.30;4.97;;;;;;;28.33;45.14;94830.34;5085768;28;20134;-75
2023/07/22 05:55:38;;;;;;;7.80;4.72;;;;;;;28.44;44.71;94818.03;5063390;28;20044;-78
2023/07/22 05:58:05;;;;;;;9.27;4.78;;;;;;;28.42;43.81;94820.97;5095271;28;20077;-75
2023/07/22 06:00:32;;;;;;;8.07;4.60;;;;;;;28.41;44.63;94813.13;5109274;28;20027;-74
2023/07/22 06:02:58;;;;;;;9.32;5.00;;;;;;;28.33;45.85;94817.00;5074871;28;20026;-74
2023/07/22 06:05:23;;;;;;;8.90;5.38;;;;;;;28.33;45.93;94810.84;5113992;28;20548;-75
2023/07/22 06:07:49;;;;;;;9.77;4.90;;;;;;;28.22;46.26;94824.00;5086257;28;20051;-75
2023/07/22 06:10:14;;;;;;;8.95;5.32;;;;;;;28.21;45.37;94832.25;5085749;28;20071;-74
2023/07/22 06:12:41;;;;;;;6.75;5.32;;;;;;;28.12;45.92;94823.78;5094604;28;20397;-74
2023/07/22 06:15:06;;;;;;;8.98;5.60;;;;;;;28.24;45.27;94835.25;5105565;28;20031;-75
2023/07/22 06:17:32;;;;;;;8.63;5.35;;;;;;;28.44;45.50;94842.88;5091550;28;20032;-77
2023/07/22 06:19:57;;;;;;;6.97;5.60;;;;;;;28.81;44.19;94831.81;5066791;28;20078;-74
2023/07/22 06:22:23;;;;;;;8.27;5.28;;;;;;;28.62;43.96;94849.91;5091038;28;20036;-74
2023/07/22 06:24:48;;;;;;;7.18;4.95;;;;;;;28.76;43.94;94858.44;5082481;28;20024;-74
2023/07/22 06:27:14;;;;;;;6.35;5.28;;;;;;;28.56;43.55;94864.22;5092884;28;20061;-74
2023/07/22 06:29:39;;;;;;;8.30;5.55;;;;;;;28.72;43.35;94858.13;5091969;28;20067;-74
2023/07/22 06:32:05;;;;;;;10.20;5.80;;;;;;;28.58;43.15;94855.97;5086473;28;20028;-74
2023/07/22 06:34:30;;;;;;;9.55;5.78;;;;;;;28.44;42.93;94872.25;5095950;28;20031;-74
2023/07/22 06:36:56;;;;;;;8.45;5.68;;;;;;;28.98;42.43;94871.16;5094992;28;20106;-81
2023/07/22 06:39:21;;;;;;;10.88;6.03;;;;;;;28.62;42.30;94859.78;5082767;28;20044;-75
2023/07/22 06:41:47;;;;;;;9.65;5.95;;;;;;;28.99;42.66;94854.03;5092869;28;20032;-74
2023/07/22 06:44:12;;;;;;;9.35;5.93;;;;;;;29.04;42.17;94864.84;5091704;28;20050;-74
2023/07/22 06:46:37;;;;;;;11.65;5.57;;;;;;;29.27;42.04;94880.75;5090874;28;20558;-74
2023/07/22 06:49:03;;;;;;;12.18;6.43;;;;;;;29.19;41.13;94873.13;5098484;28;20036;-75
2023/07/22 06:51:28;;;;;;;10.98;6.03;;;;;;;29.14;40.97;94873.88;5094789;28;20036;-74
2023/07/22 06:53:54;;;;;;;10.95;6.93;;;;;;;28.96;41.29;94874.03;5097274;28;20031;-73
2023/07/22 06:56:19;;;;;;;11.50;6.22;;;;;;;28.91;41.86;94864.06;5098601;28;20042;-74
2023/07/22 06:58:45;;;;;;;9.80;6.35;;;;;;;28.95;41.26;94873.25;5093371;28;20413;-73
2023/07/22 07:01:11;;;;;;;12.00;6.40;;;;;;;29.28;41.15;94868.19;5073174;28;20043;-73
2023/07/22 07:03:36;;;;;;;10.38;6.63;;;;;;;29.15;40.67;94863.97;5089691;28;20462;-73
2023/07/22 07:06:01;;;;;;;11.20;6.25;;;;;;;29.25;40.99;94869.47;5093406;28;20031;-73
2023/07/22 07:08:27;;;;;;;12.05;6.43;;;;;;;29.38;40.72;94865.69;5092570;28;20051;-73
2023/07/22 07:10:52;;;;;;;11.10;6.53;;;;;;;29.28;41.13;94854.81;5092601;28;20043;-73
2023/07/22 07:13:18;;;;;;;12.07;7.13;;;;;;;29.52;39.89;94855.47;5073390;28;20069;-74
2023/07/22 07:15:48;;;;;;;9.77;6.53;;;;;;;29.67;39.44;94853.06;5072565;28;20035;-73
2023/07/22 07:18:13;;;;;;;;;;;;;;;29.50;40.09;94857.56;5075585;28;20062;-72
2023/07/22 07:20:38;;;;;;;10.23;6.87;;;;;;;29.15;40.63;94853.28;5074403;28;19923;-72
2023/07/22 07:23:04;;;;;;;10.65;6.90;;;;;;;29.32;40.76;94856.78;5092795;28;20500;-73
2023/07/22 07:25:29;;;;;;;11.90;6.47;;;;;;;29.35;40.67;94840.22;5090729;28;20032;-72
2023/07/22 07:27:55;;;;;;;12.15;7.05;;;;;;;29.64;40.42;94845.50;5088354;28;20024;-73
2023/07/22 07:30:20;;;;;;;9.35;6.55;;;;;;;29.64;39.69;94848.19;5092507;28;20032;-72
2023/07/22 07:32:45;;;;;;;13.00;6.60;;;;;;;29.53;39.33;94841.03;5089413;28;20032;-71
2023/07/22 07:35:11;;;;;;;13.40;7.07;;;;;;;29.80;38.75;94833.16;5087647;28;20032;-73
2023/07/22 07:37:37;;;;;;;10.73;6.45;;;;;;;29.88;38.79;94831.94;5087173;28;20031;-72
2023/07/22 07:40:03;;;;;;;13.35;6.80;;;;;;;29.76;38.99;94830.19;5087919;28;20032;-72
2023/07/22 07:42:28;;;;;;;11.27;6.35;;;;;;;29.91;39.55;94823.41;5090183;28;20089;-72
2023/07/22 07:44:54;;;;;;;9.77;6.18;;;;;;;30.22;38.81;94816.59;5087638;28;20028;-73
2023/07/22 07:47:20;;;;;;;12.55;6.60;;;;;;;30.57;38.44;94829.59;5051447;28;20043;-72
2023/07/22 07:49:45;;;;;;;10.20;6.47;;;;;;;30.19;38.52;94828.59;5068380;28;20040;-74
2023/07/22 07:52:11;;;;;;;12.07;6.60;;;;;;;30.44;37.85;94835.34;5066857;28;20042;-72
2023/07/22 07:54:36;;;;;;;8.70;6.00;;;;;;;30.24;38.16;94831.34;5106040;28;20032;-72
2023/07/22 07:57:02;;;;;;;10.93;7.05;;;;;;;30.31;38.00;94830.34;5089432;28;20061;-72
2023/07/22 07:59:27;;;;;;;13.10;6.75;;;;;;;30.35;38.94;94828.81;5088971;28;20067;-72
2023/07/22 08:01:53;;;;;;;13.07;7.60;;;;;;;30.32;39.21;94815.91;5071021;28;20023;-75
2023/07/22 08:04:20;;;;;;;17.20;7.38;;;;;;;30.53;38.33;94812.38;5088644;28;20501;-73
2023/07/22 08:06:46;;;;;;;9.50;6.40;;;;;;;30.53;38.99;94812.38;5088731;28;20089;-73
2023/07/22 08:09:18;;;;;;;12.15;6.70;;;;;;;30.67;39.17;94807.44;5090265;28;20387;-73
2023/07/22 08:11:43;;;;;;;9.75;6.30;;;;;;;30.91;38.33;94805.28;5091309;28;20060;-72
2023/07/22 08:14:09;;;;;;;13.90;7.65;;;;;;;30.88;38.59;94819.22;5088608;28;20493;-73
2023/07/22 08:16:35;;;;;;;14.90;7.10;;;;;;;30.79;38.03;94805.44;5089239;28;20020;-73
2023/07/22 08:19:00;;;;;;;12.27;7.20;;;;;;;31.06;38.35;94809.97;5067186;28;20024;-75
2023/07/22 08:21:26;;;;;;;13.45;6.82;;;;;;;31.23;38.68;94815.22;5089949;28;20035;-75
2023/07/22 08:23:51;;;;;;;13.68;6.80;;;;;;;31.22;37.18;94821.66;5091537;28;20028;-75
2023/07/22 08:26:20;;;;;;;15.82;6.80;;;;;;;31.72;36.61;94818.53;5090290;28;20024;-74
2023/07/22 08:28:46;;;;;;;11.02;7.00;;;;;;;31.39;36.15;94812.41;5090405;28;20655;-75
2023/07/22 08:31:12;;;;;;;12.27;6.45;;;;;;;31.57;36.51;94800.47;5072707;28;20066;-74
2023/07/22 08:33:37;;;;;;;8.75;6.32;;;;;;;31.28;37.50;94801.84;5073534;28;20036;-75
2023/07/22 08:36:02;;;;;;;12.63;7.00;;;;;;;30.93;38.52;94800.50;5091414;28;20028;-74
2023/07/22 08:38:28;;;;;;;12.02;6.65;;;;;;;30.91;37.83;94802.63;5089454;28;20032;-75
2023/07/22 08:40:53;;;;;;;12.02;7.43;;;;;;;30.89;37.48;94796.69;5087315;28;20506;-75
2023/07/22 08:43:22;;;;;;;11.77;7.30;;;;;;;30.87;37.73;94793.44;5089772;28;20031;-76
2023/07/22 08:45:49;;;;;;;10.45;6.93;;;;;;;30.72;37.77;94794.09;5085747;28;20043;-75
2023/07/22 08:48:15;;;;;;;12.50;7.00;;;;;;;30.99;37.61;94791.44;5072785;28;20032;-73
2023/07/22 08:50:55;;;;;;;12.05;7.00;;;;;;;31.03;37.31;94786.34;5072892;28;20420;-75
2023/07/22 08:53:21;;;;;;;;;;;;;;;31.06;37.54;94783.16;5069769;28;20505;-74
2023/07/22 08:55:47;;;;;;;13.20;7.38;;;;;;;31.05;37.98;94779.66;5071920;28;19973;-74
2023/07/22 08:58:13;;;;;;;12.57;7.30;;;;;;;31.09;38.04;94772.75;5071240;28;20024;-74
2023/07/22 09:00:39;;;;;;;11.98;6.60;;;;;;;31.11;37.89;94762.53;5092705;28;20035;-74
2023/07/22 09:03:04;;;;;;;11.50;7.07;;;;;;;30.95;38.43;94755.44;5074634;28;20086;-74
2023/07/22 09:05:31;;;;;;;13.77;6.95;;;;;;;31.09;37.86;94758.50;5087101;28;20028;-73
2023/07/22 09:08:01;;;;;;;10.13;6.40;;;;;;;31.36;37.62;94761.16;5090597;28;20510;-73
2023/07/22 09:10:27;;;;;;;12.88;7.25;;;;;;;31.42;37.75;94753.94;5079864;28;20060;-74
2023/07/22 09:12:53;;;;;;;12.30;7.25;;;;;;;31.52;37.94;94745.97;5091524;28;20042;-74
2023/07/22 09:15:18;;;;;;;39.97;9.45;;;;;;;31.68;37.48;94744.97;5054802;28;20025;-73
2023/07/22 09:17:44;;;;;;;16.30;7.25;;;;;;;31.79;37.18;94743.16;5051483;28;20027;-77
2023/07/22 09:20:10;;;;;;;18.25;6.70;;;;;;;31.66;36.99;94739.06;5067824;28;20032;-77
2023/07/22 09:22:35;;;;;;;14.05;6.20;;;;;;;32.01;36.96;94738.44;5051280;28;20563;-74
2023/07/22 09:25:25;;;;;;;11.45;7.22;;;;;;;31.91;37.19;94746.44;5087256;28;20028;-74
2023/07/22 09:27:52;;;;;;;11.98;7.05;;;;;;;31.86;37.43;94738.34;5084398;28;20383;-74
2023/07/22 09:30:34;;;;;;;10.07;6.70;;;;;;;31.90;37.11;94743.97;5088371;28;20075;-74
2023/07/22 09:33:01;;;;;;;11.85;6.47;;;;;;;32.18;37.32;94740.09;5091821;28;20067;-74
2023/07/22 09:35:46;;;;;;;15.50;7.20;;;;;;;32.13;36.68;94732.03;5098778;28;20516;-73
2023/07/22 09:38:12;;;;;;;12.98;6.93;;;;;;;31.95;36.72;94738.66;5093851;28;20093;-74
2023/07/22 09:40:42;;;;;;;13.25;6.45;;;;;;;32.29;36.84;94728.31;5093617;28;20065;-76
2023/07/22 09:43:09;;;;;;;;;;;;;;;32.40;36.41;94731.81;5093217;28;20500;-72
2023/07/22 09:45:34;;;;;;;11.18;6.85;;;;;;;32.47;37.11;94714.41;5093156;28;19991;-77
2023/07/22 09:48:00;;;;;;;13.43;6.95;;;;;;;32.49;36.70;94730.28;5093041;28;20028;-78
2023/07/22 09:50:26;;;;;;;13.68;6.90;;;;;;;32.33;37.02;94715.94;5092229;28;20089;-79
2023/07/22 09:52:52;;;;;;;9.88;6.93;;;;;;;32.59;37.18;94727.56;5087187;28;20604;-77
2023/07/22 09:55:23;;;;;;;13.15;6.70;;;;;;;32.71;36.34;94721.97;5076235;28;20031;-76
2023/07/22 09:57:56;;;;;;;12.50;6.40;;;;;;;32.66;36.59;94714.69;5076073;28;20456;-80
2023/07/22 10:00:24;;;;;;;20.90;7.25;;;;;;;33.01;36.55;94714.97;5094513;28;20028;-78
2023/07/22 10:02:52;;;;;;;11.70;6.50;;;;;;;33.04;36.19;94722.50;5093292;28;20507;-80
2023/07/22 10:05:21;;;;;;;11.07;7.15;;;;;;;33.01;35.79;94718.47;5077592;28;20032;-79
2023/07/22 10:07:51;;;;;;;14.83;6.63;;;;;;;32.96;35.61;94696.94;5075843;28;20040;-78
2023/07/22 10:10:18;;;;;;;10.27;6.35;;;;;;;33.11;35.50;94713.09;5076635;28;20067;-78
2023/07/22 10:12:43;;;;;;;11.15;6.20;;;;;;;33.02;35.88;94713.94;5093851;28;20089;-78
2023/07/22 10:15:10;;;;;;;14.77;6.55;;;;;;;33.18;35.75;94728.94;5092666;28;20494;-79
2023/07/22 10:17:36;;;;;;;16.90;6.95;;;;;;;33.22;35.75;94718.47;5092370;28;20024;-82
2023/07/22 10:20:05;;;;;;;11.63;6.50;;;;;;;33.08;34.82;94699.38;5075794;28;20058;-84
2023/07/22 10:22:30;;;;;;;16.30;6.38;;;;;;;33.31;35.36;94714.16;5087819;28;20053;-78
2023/07/22 10:24:56;;;;;;;10.95;6.57;;;;;;;33.29;34.46;94727.88;5091008;28;20036;-79
2023/07/22 10:27:21;;;;;;;14.45;6.53;;;;;;;33.26;34.76;94719.53;5073725;28;20020;-79
2023/07/22 10:29:47;;;;;;;13.93;6.40;;;;;;;33.23;34.79;94720.88;5090976;28;20037;-78
2023/07/22 10:32:12;;;;;;;15.40;6.53;;;;;;;33.10;33.98;94708.81;5054602;28;20121;-77
2023/07/22 10:34:37;;;;;;;12.07;6.75;;;;;;;33.38;33.83;94712.00;5053930;28;20036;-79
2023/07/22 10:37:04;;;;;;;13.57;6.50;;;;;;;33.51;33.36;94700.63;5057947;28;20032;-84
2023/07/22 10:39:29;;;;;;;17.15;6.82;;;;;;;33.72;32.78;94712.19;5087629;28;20036;-81
2023/07/22 10:42:04;;;;;;;14.13;7.00;;;;;;;33.64;32.52;94703.88;5090277;28;20078;-81
2023/07/22 10:44:35;;;;;;;12.93;6.28;;;;;;;33.43;32.59;94695.81;5058009;28;20134;-82
2023/07/22 10:47:01;;;;;;;10.90;6.25;;;;;;;33.62;31.76;94700.63;5092518;28;20040;-78
2023/07/22 10:49:28;;;;;;;19.63;6.70;;;;;;;33.52;31.87;94693.38;5087677;28;20078;-77
2023/07/22 10:51:53;;;;;;;16.38;6.85;;;;;;;33.78;31.79;94694.91;5085468;28;20033;-76
2023/07/22 10:54:36;;;;;;;17.42;6.90;;;;;;;33.57;32.11;94688.00;5093245;28;20386;-78
2023/07/22 10:57:16;;;;;;;19.95;6.55;;;;;;;33.61;32.20;94694.44;5075973;28;20032;-76
2023/07/22 10:59:51;;;;;;;18.17;6.60;;;;;;;33.55;31.48;94682.09;5089841;28;20032;-76
2023/07/22 11:02:26;;;;;;;16.58;6.00;;;;;;;33.59;30.87;94681.25;5073358;28;20028;-84
2023/07/22 11:04:52;;;;;;;17.00;6.45;;;;;;;33.42;30.20;94680.75;5059209;28;20115;-80
2023/07/22 11:07:32;;;;;;;19.45;6.05;;;;;;;33.40;30.22;94669.44;5090882;28;20481;-79
2023/07/22 11:09:58;;;;;;;23.00;6.63;;;;;;;33.62;31.05;94679.91;5108230;28;20031;-79
2023/07/22 11:12:24;;;;;;;13.48;6.13;;;;;;;33.80;30.48;94667.72;5102426;28;20034;-79
2023/07/22 11:14:51;;;;;;;17.80;5.97;;;;;;;33.99;29.63;94667.88;5074567;28;20028;-78
2023/07/22 11:17:37;;;;;;;16.55;6.50;;;;;;;34.15;28.92;94666.75;5089808;28;20024;-79
2023/07/22 11:20:03;;;;;;;18.70;6.35;;;;;;;34.15;29.42;94655.97;5088655;28;20101;-79
2023/07/22 11:22:29;;;;;;;24.67;5.97;;;;;;;34.41;28.75;94651.22;5089686;28;20028;-78
2023/07/22 11:24:58;;;;;;;23.20;6.25;;;;;;;34.42;28.96;94665.50;5091302;28;20434;-77
2023/07/22 11:27:23;;;;;;;18.45;5.38;;;;;;;34.47;26.94;94633.13;5089588;28;20054;-78